sensor_id;sensor_type;location;lat;lon;timestamp;P1;durP1;ratioP1;P2;durP2;ratioP2
19225;SDS011;9747;48.536;12.522;2022-11-20T00:00:40;2.30;;;2.20;;
19225;SDS011;9747;48.536;12.522;2022-11-20T00:03:07;2.78;;;2.58;;
19225;SDS011;9747;48.536;12.522;2022-11-20T00:05:35;2.45;;;2.25;;
19225;SDS011;9747;48.536;12.522;2022-11-20T00:08:04;2.40;;;2.30;;
19225;SDS011;9747;48.536;12.522;2022-11-20T00:10:31;2.30;;;2.20;;
19225;SDS011;9747;48.536;12.522;2022-11-20T00:12:59;2.45;;;2.35;;
19225;SDS011;9747;48.536;12.522;2022-11-20T00:15:27;2.47;;;2.38;;
19225;SDS011;9747;48.536;12.522;2022-11-20T00:17:54;2.38;;;2.28;;
19225;SDS011;9747;48.536;12.522;2022-11-20T00:20:22;2.55;;;2.30;;
19225;SDS011;9747;48.536;12.522;2022-11-20T00:22:50;2.83;;;2.63;;
19225;SDS011;9747;48.536;12.522;2022-11-20T00:25:19;2.83;;;2.53;;
19225;SDS011;9747;48.536;12.522;2022-11-20T00:27:47;2.30;;;2.20;;
19225;SDS011;9747;48.536;12.522;2022-11-20T00:30:14;2.53;;;2.42;;
19225;SDS011;9747;48.536;12.522;2022-11-20T00:32:42;2.60;;;2.50;;
19225;SDS011;9747;48.536;12.522;2022-11-20T00:35:09;2.70;;;2.50;;
19225;SDS011;9747;48.536;12.522;2022-11-20T00:37:37;2.35;;;2.25;;
19225;SDS011;9747;48.536;12.522;2022-11-20T00:40:05;2.85;;;2.65;;
19225;SDS011;9747;48.536;12.522;2022-11-20T00:42:35;2.72;;;2.53;;
19225;SDS011;9747;48.536;12.522;2022-11-20T00:45:03;2.25;;;2.15;;
19225;SDS011;9747;48.536;12.522;2022-11-20T00:47:32;2.50;;;2.30;;
19225;SDS011;9747;48.536;12.522;2022-11-20T00:49:59;2.70;;;2.50;;
19225;SDS011;9747;48.536;12.522;2022-11-20T00:52:27;2.50;;;2.40;;
19225;SDS011;9747;48.536;12.522;2022-11-20T00:54:54;2.63;;;2.53;;
19225;SDS011;9747;48.536;12.522;2022-11-20T00:57:22;2.17;;;2.08;;
19225;SDS011;9747;48.536;12.522;2022-11-20T00:59:51;2.50;;;2.30;;
19225;SDS011;9747;48.536;12.522;2022-11-20T01:02:18;2.60;;;2.50;;
19225;SDS011;9747;48.536;12.522;2022-11-20T01:04:46;2.50;;;2.40;;
19225;SDS011;9747;48.536;12.522;2022-11-20T01:07:13;2.60;;;2.50;;
19225;SDS011;9747;48.536;12.522;2022-11-20T01:09:41;2.50;;;2.33;;
19225;SDS011;9747;48.536;12.522;2022-11-20T01:12:09;2.88;;;2.50;;
19225;SDS011;9747;48.536;12.522;2022-11-20T01:14:36;4.03;;;3.50;;
19225;SDS011;9747;48.536;12.522;2022-11-20T01:17:05;4.32;;;3.50;;
19225;SDS011;9747;48.536;12.522;2022-11-20T01:19:33;3.55;;;3.22;;
19225;SDS011;9747;48.536;12.522;2022-11-20T01:22:01;3.20;;;2.92;;
19225;SDS011;9747;48.536;12.522;2022-11-20T01:24:28;3.42;;;3.13;;
19225;SDS011;9747;48.536;12.522;2022-11-20T01:26:56;3.05;;;2.75;;
19225;SDS011;9747;48.536;12.522;2022-11-20T01:29:24;3.20;;;2.90;;
19225;SDS011;9747;48.536;12.522;2022-11-20T01:31:52;3.47;;;3.08;;
19225;SDS011;9747;48.536;12.522;2022-11-20T01:34:21;3.45;;;3.15;;
19225;SDS011;9747;48.536;12.522;2022-11-20T01:36:50;2.83;;;2.63;;
19225;SDS011;9747;48.536;12.522;2022-11-20T01:39:18;2.83;;;2.63;;
19225;SDS011;9747;48.536;12.522;2022-11-20T01:41:48;3.40;;;2.90;;
19225;SDS011;9747;48.536;12.522;2022-11-20T01:44:47;3.00;;;2.80;;
19225;SDS011;9747;48.536;12.522;2022-11-20T01:47:20;3.42;;;3.13;;
19225;SDS011;9747;48.536;12.522;2022-11-20T01:49:58;2.90;;;2.63;;
19225;SDS011;9747;48.536;12.522;2022-11-20T01:52:30;2.97;;;2.63;;
19225;SDS011;9747;48.536;12.522;2022-11-20T01:55:01;2.72;;;2.53;;
19225;SDS011;9747;48.536;12.522;2022-11-20T01:57:32;2.72;;;2.53;;
19225;SDS011;9747;48.536;12.522;2022-11-20T02:00:03;2.67;;;2.58;;
19225;SDS011;9747;48.536;12.522;2022-11-20T02:02:37;2.63;;;2.42;;
19225;SDS011;9747;48.536;12.522;2022-11-20T02:05:12;3.00;;;2.70;;
19225;SDS011;9747;48.536;12.522;2022-11-20T02:07:45;2.75;;;2.50;;
19225;SDS011;9747;48.536;12.522;2022-11-20T02:10:14;2.80;;;2.60;;
19225;SDS011;9747;48.536;12.522;2022-11-20T02:12:41;2.50;;;2.40;;
19225;SDS011;9747;48.536;12.522;2022-11-20T02:15:27;2.33;;;2.22;;
19225;SDS011;9747;48.536;12.522;2022-11-20T02:17:54;2.97;;;2.78;;
19225;SDS011;9747;48.536;12.522;2022-11-20T02:20:23;3.10;;;2.70;;
19225;SDS011;9747;48.536;12.522;2022-11-20T02:22:52;2.92;;;2.60;;
19225;SDS011;9747;48.536;12.522;2022-11-20T02:25:23;2.80;;;2.58;;
19225;SDS011;9747;48.536;12.522;2022-11-20T02:27:52;2.75;;;2.55;;
19225;SDS011;9747;48.536;12.522;2022-11-20T02:30:19;2.58;;;2.35;;
19225;SDS011;9747;48.536;12.522;2022-11-20T02:32:47;2.70;;;2.50;;
19225;SDS011;9747;48.536;12.522;2022-11-20T02:38:08;2.45;;;2.35;;
19225;SDS011;9747;48.536;12.522;2022-11-20T02:40:37;3.08;;;2.80;;
19225;SDS011;9747;48.536;12.522;2022-11-20T02:43:05;2.70;;;2.50;;
19225;SDS011;9747;48.536;12.522;2022-11-20T02:45:32;2.50;;;2.30;;
19225;SDS011;9747;48.536;12.522;2022-11-20T02:48:00;2.75;;;2.55;;
19225;SDS011;9747;48.536;12.522;2022-11-20T02:50:27;2.70;;;2.50;;
19225;SDS011;9747;48.536;12.522;2022-11-20T02:52:55;2.70;;;2.50;;
19225;SDS011;9747;48.536;12.522;2022-11-20T02:55:22;2.20;;;2.10;;
19225;SDS011;9747;48.536;12.522;2022-11-20T02:57:51;2.47;;;2.28;;
19225;SDS011;9747;48.536;12.522;2022-11-20T03:00:18;2.45;;;2.25;;
19225;SDS011;9747;48.536;12.522;2022-11-20T03:02:46;2.65;;;2.45;;
19225;SDS011;9747;48.536;12.522;2022-11-20T03:05:14;2.40;;;2.20;;
19225;SDS011;9747;48.536;12.522;2022-11-20T03:07:43;2.30;;;2.20;;
19225;SDS011;9747;48.536;12.522;2022-11-20T03:10:10;2.60;;;2.50;;
19225;SDS011;9747;48.536;12.522;2022-11-20T03:12:38;3.25;;;2.28;;
19225;SDS011;9747;48.536;12.522;2022-11-20T03:15:07;2.42;;;2.33;;
19225;SDS011;9747;48.536;12.522;2022-11-20T03:17:36;2.40;;;2.30;;
19225;SDS011;9747;48.536;12.522;2022-11-20T03:20:04;2.50;;;2.30;;
19225;SDS011;9747;48.536;12.522;2022-11-20T03:22:34;2.70;;;2.50;;
19225;SDS011;9747;48.536;12.522;2022-11-20T03:25:01;2.50;;;2.40;;
19225;SDS011;9747;48.536;12.522;2022-11-20T03:27:31;2.38;;;2.28;;
19225;SDS011;9747;48.536;12.522;2022-11-20T03:29:59;2.42;;;2.28;;
19225;SDS011;9747;48.536;12.522;2022-11-20T03:32:28;2.00;;;1.90;;
19225;SDS011;9747;48.536;12.522;2022-11-20T03:34:56;2.15;;;2.05;;
19225;SDS011;9747;48.536;12.522;2022-11-20T03:37:23;2.40;;;2.22;;
19225;SDS011;9747;48.536;12.522;2022-11-20T03:39:51;2.40;;;2.30;;
19225;SDS011;9747;48.536;12.522;2022-11-20T03:42:18;2.40;;;2.20;;
19225;SDS011;9747;48.536;12.522;2022-11-20T03:45:03;2.22;;;2.13;;
19225;SDS011;9747;48.536;12.522;2022-11-20T03:47:33;2.25;;;2.15;;
19225;SDS011;9747;48.536;12.522;2022-11-20T03:50:01;2.72;;;2.55;;
19225;SDS011;9747;48.536;12.522;2022-11-20T03:52:28;2.30;;;2.20;;
19225;SDS011;9747;48.536;12.522;2022-11-20T03:54:56;2.30;;;2.20;;
19225;SDS011;9747;48.536;12.522;2022-11-20T03:57:23;2.13;;;2.03;;
19225;SDS011;9747;48.536;12.522;2022-11-20T03:59:51;2.55;;;2.35;;
19225;SDS011;9747;48.536;12.522;2022-11-20T04:02:18;2.50;;;2.30;;
19225;SDS011;9747;48.536;12.522;2022-11-20T04:04:47;2.50;;;2.30;;
19225;SDS011;9747;48.536;12.522;2022-11-20T04:07:14;2.67;;;2.50;;
19225;SDS011;9747;48.536;12.522;2022-11-20T04:09:42;2.50;;;2.30;;
19225;SDS011;9747;48.536;12.522;2022-11-20T04:12:09;2.30;;;2.20;;
19225;SDS011;9747;48.536;12.522;2022-11-20T04:14:37;2.20;;;2.10;;
19225;SDS011;9747;48.536;12.522;2022-11-20T04:17:04;2.28;;;2.17;;
19225;SDS011;9747;48.536;12.522;2022-11-20T04:19:32;2.30;;;2.20;;
19225;SDS011;9747;48.536;12.522;2022-11-20T04:22:01;2.10;;;2.00;;
19225;SDS011;9747;48.536;12.522;2022-11-20T04:24:28;2.20;;;2.10;;
19225;SDS011;9747;48.536;12.522;2022-11-20T04:26:56;2.25;;;2.15;;
19225;SDS011;9747;48.536;12.522;2022-11-20T04:29:23;2.20;;;2.10;;
19225;SDS011;9747;48.536;12.522;2022-11-20T04:31:50;2.30;;;2.20;;
19225;SDS011;9747;48.536;12.522;2022-11-20T04:34:18;2.33;;;2.22;;
19225;SDS011;9747;48.536;12.522;2022-11-20T04:36:45;2.45;;;2.33;;
19225;SDS011;9747;48.536;12.522;2022-11-20T04:39:14;2.22;;;2.13;;
19225;SDS011;9747;48.536;12.522;2022-11-20T04:41:42;2.40;;;2.30;;
19225;SDS011;9747;48.536;12.522;2022-11-20T04:44:10;2.25;;;2.15;;
19225;SDS011;9747;48.536;12.522;2022-11-20T04:46:38;2.00;;;1.90;;
19225;SDS011;9747;48.536;12.522;2022-11-20T04:49:08;2.30;;;2.20;;
19225;SDS011;9747;48.536;12.522;2022-11-20T04:51:36;2.05;;;1.95;;
19225;SDS011;9747;48.536;12.522;2022-11-20T04:54:04;2.17;;;2.08;;
19225;SDS011;9747;48.536;12.522;2022-11-20T04:56:33;2.40;;;2.30;;
19225;SDS011;9747;48.536;12.522;2022-11-20T04:59:00;2.38;;;2.15;;
19225;SDS011;9747;48.536;12.522;2022-11-20T05:01:28;2.28;;;2.17;;
19225;SDS011;9747;48.536;12.522;2022-11-20T05:03:56;2.30;;;2.20;;
19225;SDS011;9747;48.536;12.522;2022-11-20T05:06:23;2.05;;;1.95;;
19225;SDS011;9747;48.536;12.522;2022-11-20T05:08:50;2.10;;;2.00;;
19225;SDS011;9747;48.536;12.522;2022-11-20T05:11:19;2.10;;;2.00;;
19225;SDS011;9747;48.536;12.522;2022-11-20T05:13:49;2.00;;;1.90;;
19225;SDS011;9747;48.536;12.522;2022-11-20T05:16:18;2.03;;;1.92;;
19225;SDS011;9747;48.536;12.522;2022-11-20T05:18:47;1.90;;;1.80;;
19225;SDS011;9747;48.536;12.522;2022-11-20T05:21:16;2.25;;;1.88;;
19225;SDS011;9747;48.536;12.522;2022-11-20T05:23:44;1.90;;;1.80;;
19225;SDS011;9747;48.536;12.522;2022-11-20T05:26:12;2.28;;;2.08;;
19225;SDS011;9747;48.536;12.522;2022-11-20T05:28:42;2.33;;;2.13;;
19225;SDS011;9747;48.536;12.522;2022-11-20T05:31:11;2.08;;;1.98;;
19225;SDS011;9747;48.536;12.522;2022-11-20T05:33:40;1.90;;;1.80;;
19225;SDS011;9747;48.536;12.522;2022-11-20T05:36:09;1.83;;;1.73;;
19225;SDS011;9747;48.536;12.522;2022-11-20T05:38:38;2.00;;;1.90;;
19225;SDS011;9747;48.536;12.522;2022-11-20T05:41:06;1.80;;;1.70;;
19225;SDS011;9747;48.536;12.522;2022-11-20T05:43:36;1.90;;;1.80;;
19225;SDS011;9747;48.536;12.522;2022-11-20T05:46:06;1.70;;;1.60;;
19225;SDS011;9747;48.536;12.522;2022-11-20T05:48:38;1.45;;;1.42;;
19225;SDS011;9747;48.536;12.522;2022-11-20T05:51:08;1.85;;;1.75;;
19225;SDS011;9747;48.536;12.522;2022-11-20T05:53:37;1.67;;;1.60;;
19225;SDS011;9747;48.536;12.522;2022-11-20T05:56:05;1.55;;;1.55;;
19225;SDS011;9747;48.536;12.522;2022-11-20T05:58:36;1.90;;;1.80;;
19225;SDS011;9747;48.536;12.522;2022-11-20T06:01:05;1.67;;;1.63;;
19225;SDS011;9747;48.536;12.522;2022-11-20T06:03:37;1.70;;;1.60;;
19225;SDS011;9747;48.536;12.522;2022-11-20T06:06:06;1.50;;;1.48;;
19225;SDS011;9747;48.536;12.522;2022-11-20T06:08:33;1.50;;;1.50;;
19225;SDS011;9747;48.536;12.522;2022-11-20T06:11:04;1.80;;;1.70;;
19225;SDS011;9747;48.536;12.522;2022-11-20T06:13:33;1.48;;;1.45;;
19225;SDS011;9747;48.536;12.522;2022-11-20T06:16:00;2.00;;;1.90;;
19225;SDS011;9747;48.536;12.522;2022-11-20T06:18:29;1.42;;;1.40;;
19225;SDS011;9747;48.536;12.522;2022-11-20T06:21:02;1.42;;;1.42;;
19225;SDS011;9747;48.536;12.522;2022-11-20T06:23:31;1.25;;;1.25;;
19225;SDS011;9747;48.536;12.522;2022-11-20T06:26:01;1.55;;;1.45;;
19225;SDS011;9747;48.536;12.522;2022-11-20T06:28:29;1.75;;;1.65;;
19225;SDS011;9747;48.536;12.522;2022-11-20T06:30:57;1.60;;;1.48;;
19225;SDS011;9747;48.536;12.522;2022-11-20T06:33:25;1.45;;;1.40;;
19225;SDS011;9747;48.536;12.522;2022-11-20T06:35:55;1.67;;;1.58;;
19225;SDS011;9747;48.536;12.522;2022-11-20T06:38:25;1.40;;;1.30;;
19225;SDS011;9747;48.536;12.522;2022-11-20T06:40:52;1.45;;;1.35;;
19225;SDS011;9747;48.536;12.522;2022-11-20T06:43:20;1.42;;;1.30;;
19225;SDS011;9747;48.536;12.522;2022-11-20T06:45:51;1.60;;;1.50;;
19225;SDS011;9747;48.536;12.522;2022-11-20T06:48:19;1.33;;;1.23;;
19225;SDS011;9747;48.536;12.522;2022-11-20T06:50:46;1.45;;;1.45;;
19225;SDS011;9747;48.536;12.522;2022-11-20T06:53:14;1.30;;;1.30;;
19225;SDS011;9747;48.536;12.522;2022-11-20T06:55:43;1.40;;;1.30;;
19225;SDS011;9747;48.536;12.522;2022-11-20T06:58:11;1.52;;;1.48;;
19225;SDS011;9747;48.536;12.522;2022-11-20T07:00:39;1.20;;;1.20;;
19225;SDS011;9747;48.536;12.522;2022-11-20T07:03:07;1.40;;;1.30;;
19225;SDS011;9747;48.536;12.522;2022-11-20T07:05:36;1.27;;;1.20;;
19225;SDS011;9747;48.536;12.522;2022-11-20T07:08:04;1.40;;;1.40;;
19225;SDS011;9747;48.536;12.522;2022-11-20T07:10:31;1.20;;;1.20;;
19225;SDS011;9747;48.536;12.522;2022-11-20T07:13:01;1.58;;;1.55;;
19225;SDS011;9747;48.536;12.522;2022-11-20T07:15:28;1.10;;;1.10;;
19225;SDS011;9747;48.536;12.522;2022-11-20T07:17:58;1.40;;;1.40;;
19225;SDS011;9747;48.536;12.522;2022-11-20T07:20:25;1.45;;;1.35;;
19225;SDS011;9747;48.536;12.522;2022-11-20T07:22:53;1.20;;;1.20;;
19225;SDS011;9747;48.536;12.522;2022-11-20T07:25:21;1.10;;;1.10;;
19225;SDS011;9747;48.536;12.522;2022-11-20T07:27:48;1.77;;;1.50;;
19225;SDS011;9747;48.536;12.522;2022-11-20T07:30:17;1.20;;;1.20;;
19225;SDS011;9747;48.536;12.522;2022-11-20T07:32:46;1.15;;;1.15;;
19225;SDS011;9747;48.536;12.522;2022-11-20T07:35:14;1.33;;;1.30;;
19225;SDS011;9747;48.536;12.522;2022-11-20T07:37:41;1.33;;;1.33;;
19225;SDS011;9747;48.536;12.522;2022-11-20T07:42:39;1.40;;;1.30;;
19225;SDS011;9747;48.536;12.522;2022-11-20T07:45:13;1.27;;;1.17;;
19225;SDS011;9747;48.536;12.522;2022-11-20T07:47:42;1.23;;;1.23;;
19225;SDS011;9747;48.536;12.522;2022-11-20T07:50:09;1.30;;;1.30;;
19225;SDS011;9747;48.536;12.522;2022-11-20T07:52:37;1.67;;;1.25;;
19225;SDS011;9747;48.536;12.522;2022-11-20T07:55:06;2.80;;;1.30;;
19225;SDS011;9747;48.536;12.522;2022-11-20T07:57:34;1.38;;;1.30;;
19225;SDS011;9747;48.536;12.522;2022-11-20T08:00:02;1.17;;;1.17;;
19225;SDS011;9747;48.536;12.522;2022-11-20T08:02:37;1.05;;;1.05;;
19225;SDS011;9747;48.536;12.522;2022-11-20T08:05:07;1.17;;;1.10;;
19225;SDS011;9747;48.536;12.522;2022-11-20T08:07:36;1.40;;;1.30;;
19225;SDS011;9747;48.536;12.522;2022-11-20T08:10:04;1.42;;;1.13;;
19225;SDS011;9747;48.536;12.522;2022-11-20T08:12:33;1.10;;;1.10;;
19225;SDS011;9747;48.536;12.522;2022-11-20T08:15:18;2.30;;;1.20;;
19225;SDS011;9747;48.536;12.522;2022-11-20T08:17:45;1.20;;;1.20;;
19225;SDS011;9747;48.536;12.522;2022-11-20T08:20:14;1.13;;;1.10;;
19225;SDS011;9747;48.536;12.522;2022-11-20T08:22:42;1.20;;;1.20;;
19225;SDS011;9747;48.536;12.522;2022-11-20T08:25:09;1.20;;;1.20;;
19225;SDS011;9747;48.536;12.522;2022-11-20T08:27:37;1.20;;;1.20;;
19225;SDS011;9747;48.536;12.522;2022-11-20T08:30:05;1.27;;;1.27;;
19225;SDS011;9747;48.536;12.522;2022-11-20T08:32:34;1.15;;;1.10;;
19225;SDS011;9747;48.536;12.522;2022-11-20T08:35:03;1.20;;;1.10;;
19225;SDS011;9747;48.536;12.522;2022-11-20T08:37:32;1.67;;;1.20;;
19225;SDS011;9747;48.536;12.522;2022-11-20T08:39:59;1.45;;;1.35;;
19225;SDS011;9747;48.536;12.522;2022-11-20T08:42:27;1.10;;;1.10;;
19225;SDS011;9747;48.536;12.522;2022-11-20T08:44:54;1.45;;;1.20;;
19225;SDS011;9747;48.536;12.522;2022-11-20T08:47:22;1.13;;;1.13;;
19225;SDS011;9747;48.536;12.522;2022-11-20T08:49:49;1.33;;;1.23;;
19225;SDS011;9747;48.536;12.522;2022-11-20T08:52:16;2.25;;;1.10;;
19225;SDS011;9747;48.536;12.522;2022-11-20T08:54:45;1.10;;;1.10;;
19225;SDS011;9747;48.536;12.522;2022-11-20T08:57:13;1.55;;;1.45;;
19225;SDS011;9747;48.536;12.522;2022-11-20T08:59:40;4.30;;;2.00;;
19225;SDS011;9747;48.536;12.522;2022-11-20T09:02:07;11.73;;;8.65;;
19225;SDS011;9747;48.536;12.522;2022-11-20T09:04:35;7.72;;;6.07;;
19225;SDS011;9747;48.536;12.522;2022-11-20T09:07:03;8.55;;;5.55;;
19225;SDS011;9747;48.536;12.522;2022-11-20T09:09:30;9.23;;;4.88;;
19225;SDS011;9747;48.536;12.522;2022-11-20T09:12:00;5.38;;;4.00;;
19225;SDS011;9747;48.536;12.522;2022-11-20T09:14:27;4.93;;;3.13;;
19225;SDS011;9747;48.536;12.522;2022-11-20T09:16:55;4.25;;;2.90;;
19225;SDS011;9747;48.536;12.522;2022-11-20T09:19:23;3.63;;;2.35;;
19225;SDS011;9747;48.536;12.522;2022-11-20T09:21:51;28.05;;;25.10;;
19225;SDS011;9747;48.536;12.522;2022-11-20T09:24:18;8.00;;;7.18;;
19225;SDS011;9747;48.536;12.522;2022-11-20T09:26:46;5.43;;;4.93;;
19225;SDS011;9747;48.536;12.522;2022-11-20T09:29:15;6.35;;;4.40;;
19225;SDS011;9747;48.536;12.522;2022-11-20T09:31:42;4.22;;;3.80;;
19225;SDS011;9747;48.536;12.522;2022-11-20T09:34:10;5.10;;;4.05;;
19225;SDS011;9747;48.536;12.522;2022-11-20T09:36:37;4.50;;;4.07;;
19225;SDS011;9747;48.536;12.522;2022-11-20T09:39:05;5.47;;;3.72;;
19225;SDS011;9747;48.536;12.522;2022-11-20T09:41:39;4.78;;;3.50;;
19225;SDS011;9747;48.536;12.522;2022-11-20T09:44:31;3.58;;;3.28;;
19225;SDS011;9747;48.536;12.522;2022-11-20T09:47:16;3.53;;;3.15;;
19225;SDS011;9747;48.536;12.522;2022-11-20T09:49:56;4.35;;;3.10;;
19225;SDS011;9747;48.536;12.522;2022-11-20T09:52:37;3.50;;;2.83;;
19225;SDS011;9747;48.536;12.522;2022-11-20T09:55:09;3.15;;;2.83;;
19225;SDS011;9747;48.536;12.522;2022-11-20T09:57:39;2.90;;;2.70;;
19225;SDS011;9747;48.536;12.522;2022-11-20T10:00:11;2.80;;;2.60;;
19225;SDS011;9747;48.536;12.522;2022-11-20T10:02:42;3.10;;;2.78;;
19225;SDS011;9747;48.536;12.522;2022-11-20T10:05:15;3.20;;;2.80;;
19225;SDS011;9747;48.536;12.522;2022-11-20T10:07:47;2.50;;;2.30;;
19225;SDS011;9747;48.536;12.522;2022-11-20T10:10:21;2.60;;;2.40;;
19225;SDS011;9747;48.536;12.522;2022-11-20T10:13:02;2.92;;;2.47;;
19225;SDS011;9747;48.536;12.522;2022-11-20T10:15:45;3.35;;;2.40;;
19225;SDS011;9747;48.536;12.522;2022-11-20T10:18:26;2.58;;;2.38;;
19225;SDS011;9747;48.536;12.522;2022-11-20T10:21:03;3.75;;;2.70;;
19225;SDS011;9747;48.536;12.522;2022-11-20T10:26:51;2.78;;;2.22;;
19225;SDS011;9747;48.536;12.522;2022-11-20T10:29:27;2.60;;;2.28;;
19225;SDS011;9747;48.536;12.522;2022-11-20T10:32:01;3.33;;;2.50;;
19225;SDS011;9747;48.536;12.522;2022-11-20T10:34:32;2.47;;;2.28;;
19225;SDS011;9747;48.536;12.522;2022-11-20T10:37:05;7.45;;;3.58;;
19225;SDS011;9747;48.536;12.522;2022-11-20T10:39:39;10.02;;;3.90;;
19225;SDS011;9747;48.536;12.522;2022-11-20T10:42:11;11.77;;;5.72;;
19225;SDS011;9747;48.536;12.522;2022-11-20T10:44:46;20.50;;;7.43;;
19225;SDS011;9747;48.536;12.522;2022-11-20T10:47:29;22.98;;;9.00;;
19225;SDS011;9747;48.536;12.522;2022-11-20T10:49:58;25.30;;;8.70;;
19225;SDS011;9747;48.536;12.522;2022-11-20T10:52:33;18.92;;;7.80;;
19225;SDS011;9747;48.536;12.522;2022-11-20T10:55:10;19.90;;;9.25;;
19225;SDS011;9747;48.536;12.522;2022-11-20T10:57:49;23.92;;;9.43;;
19225;SDS011;9747;48.536;12.522;2022-11-20T11:00:20;25.63;;;9.35;;
19225;SDS011;9747;48.536;12.522;2022-11-20T11:02:50;31.10;;;10.52;;
19225;SDS011;9747;48.536;12.522;2022-11-20T11:05:25;20.55;;;8.43;;
19225;SDS011;9747;48.536;12.522;2022-11-20T11:08:00;28.08;;;8.73;;
19225;SDS011;9747;48.536;12.522;2022-11-20T11:10:29;24.70;;;10.30;;
19225;SDS011;9747;48.536;12.522;2022-11-20T11:13:02;21.63;;;9.02;;
19225;SDS011;9747;48.536;12.522;2022-11-20T11:15:35;17.67;;;8.88;;
19225;SDS011;9747;48.536;12.522;2022-11-20T11:18:07;20.90;;;8.90;;
19225;SDS011;9747;48.536;12.522;2022-11-20T11:20:36;20.27;;;9.32;;
19225;SDS011;9747;48.536;12.522;2022-11-20T11:23:04;23.83;;;9.30;;
19225;SDS011;9747;48.536;12.522;2022-11-20T11:25:37;18.45;;;9.20;;
19225;SDS011;9747;48.536;12.522;2022-11-20T11:28:17;15.02;;;8.27;;
19225;SDS011;9747;48.536;12.522;2022-11-20T11:30:50;18.77;;;8.60;;
19225;SDS011;9747;48.536;12.522;2022-11-20T11:33:20;14.05;;;8.23;;
19225;SDS011;9747;48.536;12.522;2022-11-20T11:35:49;17.13;;;7.43;;
19225;SDS011;9747;48.536;12.522;2022-11-20T11:38:21;13.25;;;7.00;;
19225;SDS011;9747;48.536;12.522;2022-11-20T11:40:53;11.13;;;6.97;;
19225;SDS011;9747;48.536;12.522;2022-11-20T11:43:22;13.60;;;6.70;;
19225;SDS011;9747;48.536;12.522;2022-11-20T11:46:28;13.07;;;6.95;;
19225;SDS011;9747;48.536;12.522;2022-11-20T11:49:00;13.07;;;6.35;;
19225;SDS011;9747;48.536;12.522;2022-11-20T11:51:41;10.85;;;5.80;;
19225;SDS011;9747;48.536;12.522;2022-11-20T11:54:24;8.57;;;5.38;;
19225;SDS011;9747;48.536;12.522;2022-11-20T11:56:58;9.90;;;5.07;;
19225;SDS011;9747;48.536;12.522;2022-11-20T11:59:28;9.60;;;5.25;;
19225;SDS011;9747;48.536;12.522;2022-11-20T12:02:11;10.40;;;5.05;;
19225;SDS011;9747;48.536;12.522;2022-11-20T12:04:50;12.52;;;5.50;;
19225;SDS011;9747;48.536;12.522;2022-11-20T12:07:27;8.60;;;4.50;;
19225;SDS011;9747;48.536;12.522;2022-11-20T12:10:06;8.65;;;4.70;;
19225;SDS011;9747;48.536;12.522;2022-11-20T12:12:48;9.75;;;4.97;;
19225;SDS011;9747;48.536;12.522;2022-11-20T12:15:29;11.18;;;4.82;;
19225;SDS011;9747;48.536;12.522;2022-11-20T12:17:59;8.82;;;4.38;;
19225;SDS011;9747;48.536;12.522;2022-11-20T12:20:29;7.95;;;4.13;;
19225;SDS011;9747;48.536;12.522;2022-11-20T12:23:02;8.00;;;3.97;;
19225;SDS011;9747;48.536;12.522;2022-11-20T12:25:35;7.20;;;4.28;;
19225;SDS011;9747;48.536;12.522;2022-11-20T12:28:10;7.50;;;4.32;;
19225;SDS011;9747;48.536;12.522;2022-11-20T12:30:51;5.75;;;3.72;;
19225;SDS011;9747;48.536;12.522;2022-11-20T12:33:38;7.50;;;4.07;;
19225;SDS011;9747;48.536;12.522;2022-11-20T12:36:35;5.32;;;3.75;;
19225;SDS011;9747;48.536;12.522;2022-11-20T12:39:15;5.78;;;3.67;;
19225;SDS011;9747;48.536;12.522;2022-11-20T12:42:09;5.55;;;3.67;;
19225;SDS011;9747;48.536;12.522;2022-11-20T12:48:58;6.18;;;3.30;;
19225;SDS011;9747;48.536;12.522;2022-11-20T12:51:54;5.78;;;3.42;;
19225;SDS011;9747;48.536;12.522;2022-11-20T12:54:47;6.90;;;3.47;;
19225;SDS011;9747;48.536;12.522;2022-11-20T12:57:45;4.00;;;3.13;;
19225;SDS011;9747;48.536;12.522;2022-11-20T13:00:17;4.88;;;2.97;;
19225;SDS011;9747;48.536;12.522;2022-11-20T13:03:01;4.32;;;2.95;;
19225;SDS011;9747;48.536;12.522;2022-11-20T13:05:59;5.32;;;2.90;;
19225;SDS011;9747;48.536;12.522;2022-11-20T13:08:34;4.90;;;2.80;;
19225;SDS011;9747;48.536;12.522;2022-11-20T13:11:07;4.82;;;2.78;;
19225;SDS011;9747;48.536;12.522;2022-11-20T13:13:43;4.55;;;2.58;;
19225;SDS011;9747;48.536;12.522;2022-11-20T13:16:32;4.45;;;2.75;;
19225;SDS011;9747;48.536;12.522;2022-11-20T13:19:03;6.68;;;2.65;;
19225;SDS011;9747;48.536;12.522;2022-11-20T13:21:35;3.72;;;2.40;;
19225;SDS011;9747;48.536;12.522;2022-11-20T13:24:06;3.85;;;2.28;;
19225;SDS011;9747;48.536;12.522;2022-11-20T13:26:48;5.18;;;2.33;;
19225;SDS011;9747;48.536;12.522;2022-11-20T13:29:31;4.38;;;2.55;;
19225;SDS011;9747;48.536;12.522;2022-11-20T13:32:03;5.13;;;2.33;;
19225;SDS011;9747;48.536;12.522;2022-11-20T13:34:33;2.42;;;2.10;;
19225;SDS011;9747;48.536;12.522;2022-11-20T13:37:01;2.88;;;2.05;;
19225;SDS011;9747;48.536;12.522;2022-11-20T13:39:32;3.95;;;2.10;;
19225;SDS011;9747;48.536;12.522;2022-11-20T13:42:01;2.33;;;2.05;;
19225;SDS011;9747;48.536;12.522;2022-11-20T13:44:46;3.70;;;2.22;;
19225;SDS011;9747;48.536;12.522;2022-11-20T13:47:19;2.90;;;2.20;;
19225;SDS011;9747;48.536;12.522;2022-11-20T13:49:48;2.20;;;2.00;;
19225;SDS011;9747;48.536;12.522;2022-11-20T13:52:33;2.28;;;2.08;;
19225;SDS011;9747;48.536;12.522;2022-11-20T13:55:15;3.63;;;2.25;;
19225;SDS011;9747;48.536;12.522;2022-11-20T13:57:54;2.33;;;2.05;;
19225;SDS011;9747;48.536;12.522;2022-11-20T14:00:41;6.72;;;2.35;;
19225;SDS011;9747;48.536;12.522;2022-11-20T14:03:14;2.33;;;1.98;;
19225;SDS011;9747;48.536;12.522;2022-11-20T14:05:48;4.03;;;2.03;;
19225;SDS011;9747;48.536;12.522;2022-11-20T14:08:24;3.80;;;2.10;;
19225;SDS011;9747;48.536;12.522;2022-11-20T14:11:05;3.22;;;1.80;;
19225;SDS011;9747;48.536;12.522;2022-11-20T14:13:50;3.55;;;1.80;;
19225;SDS011;9747;48.536;12.522;2022-11-20T14:16:20;2.00;;;1.80;;
19225;SDS011;9747;48.536;12.522;2022-11-20T14:18:48;2.20;;;1.80;;
19225;SDS011;9747;48.536;12.522;2022-11-20T14:21:23;2.80;;;1.90;;
19225;SDS011;9747;48.536;12.522;2022-11-20T14:23:52;2.42;;;1.80;;
19225;SDS011;9747;48.536;12.522;2022-11-20T14:26:30;2.92;;;1.83;;
19225;SDS011;9747;48.536;12.522;2022-11-20T14:28:57;4.35;;;1.83;;
19225;SDS011;9747;48.536;12.522;2022-11-20T14:31:26;4.00;;;1.80;;
19225;SDS011;9747;48.536;12.522;2022-11-20T14:33:54;5.13;;;1.65;;
19225;SDS011;9747;48.536;12.522;2022-11-20T14:36:22;2.38;;;1.65;;
19225;SDS011;9747;48.536;12.522;2022-11-20T14:38:51;5.00;;;1.65;;
19225;SDS011;9747;48.536;12.522;2022-11-20T14:41:20;3.88;;;1.83;;
19225;SDS011;9747;48.536;12.522;2022-11-20T14:43:52;2.67;;;1.70;;
19225;SDS011;9747;48.536;12.522;2022-11-20T14:46:22;2.20;;;1.58;;
19225;SDS011;9747;48.536;12.522;2022-11-20T14:48:51;2.92;;;1.70;;
19225;SDS011;9747;48.536;12.522;2022-11-20T14:51:28;3.40;;;1.60;;
19225;SDS011;9747;48.536;12.522;2022-11-20T14:54:07;3.85;;;1.70;;
19225;SDS011;9747;48.536;12.522;2022-11-20T14:56:37;2.35;;;1.60;;
19225;SDS011;9747;48.536;12.522;2022-11-20T14:59:06;2.97;;;1.73;;
19225;SDS011;9747;48.536;12.522;2022-11-20T15:01:35;3.95;;;1.70;;
19225;SDS011;9747;48.536;12.522;2022-11-20T15:04:05;3.55;;;1.48;;
19225;SDS011;9747;48.536;12.522;2022-11-20T15:06:35;4.38;;;1.77;;
19225;SDS011;9747;48.536;12.522;2022-11-20T15:09:04;4.13;;;1.45;;
19225;SDS011;9747;48.536;12.522;2022-11-20T15:11:38;3.03;;;1.52;;
19225;SDS011;9747;48.536;12.522;2022-11-20T15:14:08;2.45;;;1.40;;
19225;SDS011;9747;48.536;12.522;2022-11-20T15:16:36;2.58;;;1.35;;
19225;SDS011;9747;48.536;12.522;2022-11-20T15:19:04;2.72;;;1.42;;
19225;SDS011;9747;48.536;12.522;2022-11-20T15:21:43;1.80;;;1.20;;